createdAt,value
2018-09-17T00:00:38.568Z,5.00
2018-09-17T00:03:06.950Z,5.43
2018-09-17T00:05:35.333Z,5.33
2018-09-17T00:08:03.685Z,4.87
2018-09-17T00:10:32.068Z,5.30
2018-09-17T00:13:00.418Z,5.17
2018-09-17T00:15:28.812Z,5.43
2018-09-17T00:17:57.201Z,5.30
2018-09-17T00:20:25.884Z,5.47
2018-09-17T00:22:54.251Z,5.60
2018-09-17T00:25:22.570Z,5.60
2018-09-17T00:27:50.912Z,5.47
2018-09-17T00:30:19.273Z,5.97
2018-09-17T00:32:47.580Z,6.30
2018-09-17T00:35:15.927Z,6.63
2018-09-17T00:37:44.312Z,6.70
2018-09-17T00:40:12.678Z,6.47
2018-09-17T00:42:41.047Z,6.40
2018-09-17T00:45:09.380Z,6.03
2018-09-17T00:47:37.760Z,6.67
2018-09-17T00:50:06.121Z,6.93
2018-09-17T00:52:34.450Z,6.50
2018-09-17T00:55:02.808Z,6.67
2018-09-17T00:57:31.136Z,6.53
2018-09-17T00:59:59.458Z,6.50
2018-09-17T01:02:27.785Z,5.40
2018-09-17T01:04:56.141Z,5.90
2018-09-17T01:07:24.514Z,6.80
2018-09-17T01:09:52.851Z,6.63
2018-09-17T01:12:21.191Z,5.57
2018-09-17T01:14:49.497Z,6.13
2018-09-17T01:17:17.852Z,5.50
2018-09-17T01:19:46.210Z,6.50
2018-09-17T01:22:14.512Z,5.80
2018-09-17T01:24:42.843Z,5.70
2018-09-17T01:27:11.157Z,6.37
2018-09-17T01:29:39.840Z,5.63
2018-09-17T01:32:08.201Z,5.43
2018-09-17T01:34:36.554Z,5.77
2018-09-17T01:37:04.864Z,5.60
2018-09-17T01:39:33.159Z,5.27
2018-09-17T01:42:01.506Z,5.33
2018-09-17T01:44:29.856Z,5.60
2018-09-17T01:46:58.181Z,5.10
2018-09-17T01:49:26.533Z,5.17
2018-09-17T01:51:54.847Z,5.63
2018-09-17T01:54:23.205Z,5.50
2018-09-17T01:56:51.555Z,5.30
2018-09-17T01:59:19.938Z,5.40
2018-09-17T02:01:48.297Z,5.17
2018-09-17T02:04:16.670Z,5.10
2018-09-17T02:06:45.002Z,5.30
2018-09-17T02:09:13.372Z,5.57
2018-09-17T02:11:41.873Z,4.83
2018-09-17T02:14:10.200Z,5.50
2018-09-17T02:16:38.860Z,5.63
2018-09-17T02:19:07.207Z,5.23
2018-09-17T02:21:35.542Z,4.97
2018-09-17T02:24:04.095Z,4.93
2018-09-17T02:26:32.418Z,5.30
2018-09-17T02:29:00.820Z,5.40
2018-09-17T02:31:29.155Z,5.33
2018-09-17T02:33:57.477Z,5.17
2018-09-17T02:36:25.820Z,5.40
2018-09-17T02:38:54.138Z,5.30
2018-09-17T02:41:22.496Z,4.60
2018-09-17T02:43:50.811Z,5.17
2018-09-17T02:46:19.148Z,5.23
2018-09-17T02:48:47.481Z,5.70
2018-09-17T02:51:15.824Z,5.50
2018-09-17T02:53:44.204Z,5.27
2018-09-17T02:56:12.713Z,5.83
2018-09-17T02:58:41.061Z,5.13
2018-09-17T03:01:09.394Z,5.40
2018-09-17T03:03:37.712Z,5.67
2018-09-17T03:06:06.025Z,5.30
2018-09-17T03:08:34.394Z,5.17
2018-09-17T03:11:02.702Z,4.97
2018-09-17T03:13:31.028Z,5.50
2018-09-17T03:15:59.351Z,5.20
2018-09-17T03:18:39.531Z,5.27
2018-09-17T03:21:08.321Z,5.03
2018-09-17T03:23:37.742Z,5.30
2018-09-17T03:26:06.450Z,4.77
2018-09-17T03:28:34.770Z,5.07
2018-09-17T03:31:03.059Z,5.30
2018-09-17T03:33:31.447Z,5.20
2018-09-17T03:36:00.004Z,5.23
2018-09-17T03:38:37.832Z,5.33
2018-09-17T03:41:07.023Z,5.37
2018-09-17T03:43:36.117Z,5.30
2018-09-17T03:46:04.668Z,5.00
2018-09-17T03:48:34.020Z,5.03
2018-09-17T03:51:03.420Z,5.27
2018-09-17T03:53:32.070Z,5.33
2018-09-17T03:56:00.416Z,5.03
2018-09-17T03:58:29.295Z,5.60
2018-09-17T04:00:57.878Z,5.73
2018-09-17T04:03:26.221Z,5.80
2018-09-17T04:05:54.561Z,5.03
2018-09-17T04:08:22.908Z,6.70
2018-09-17T04:10:51.240Z,5.57
2018-09-17T04:13:19.565Z,5.93
2018-09-17T04:15:48.025Z,6.37
2018-09-17T04:18:16.444Z,5.90
2018-09-17T04:20:44.766Z,6.47
2018-09-17T04:23:13.146Z,5.83
2018-09-17T04:25:41.500Z,6.20
2018-09-17T04:28:09.853Z,6.17
2018-09-17T04:30:38.207Z,6.63
2018-09-17T04:33:07.509Z,6.20
2018-09-17T04:35:35.968Z,6.27
2018-09-17T04:38:04.295Z,6.43
2018-09-17T04:40:32.604Z,6.87
2018-09-17T04:43:00.938Z,5.93
2018-09-17T04:45:29.324Z,6.63
2018-09-17T04:47:57.639Z,7.33
2018-09-17T04:50:25.991Z,6.47
2018-09-17T04:52:54.278Z,5.93
2018-09-17T04:55:22.585Z,6.57
2018-09-17T04:57:50.920Z,6.57
2018-09-17T05:00:19.292Z,6.13
2018-09-17T05:02:47.627Z,6.43
2018-09-17T05:05:15.977Z,6.73
2018-09-17T05:07:44.334Z,6.40
2018-09-17T05:10:12.650Z,6.83
2018-09-17T05:12:41.039Z,6.87
2018-09-17T05:15:09.363Z,6.63
2018-09-17T05:17:37.700Z,6.90
2018-09-17T05:20:06.032Z,7.33
2018-09-17T05:22:34.334Z,6.70
2018-09-17T05:25:02.677Z,6.43
2018-09-17T05:27:31.007Z,6.20
2018-09-17T05:29:59.318Z,6.83
2018-09-17T05:32:27.607Z,7.03
2018-09-17T05:34:55.956Z,7.67
2018-09-17T05:37:24.439Z,7.30
2018-09-17T05:39:59.019Z,6.53
2018-09-17T05:43:57.397Z,6.73
2018-09-17T05:46:25.728Z,6.60
2018-09-17T05:48:54.077Z,6.53
2018-09-17T05:51:22.364Z,7.23
2018-09-17T05:53:50.766Z,6.97
2018-09-17T05:56:19.552Z,7.27
2018-09-17T05:58:47.891Z,6.77
2018-09-17T06:01:16.190Z,6.87
2018-09-17T06:03:44.518Z,6.57
2018-09-17T06:06:12.832Z,6.40
2018-09-17T06:08:41.132Z,7.20
2018-09-17T06:11:09.883Z,6.53
2018-09-17T06:13:38.210Z,7.17
2018-09-17T06:16:06.540Z,6.70
2018-09-17T06:18:34.895Z,7.20
2018-09-17T06:26:52.994Z,7.10
2018-09-17T06:29:21.283Z,6.63
2018-09-17T06:31:49.613Z,6.40
2018-09-17T06:34:17.910Z,6.80
2018-09-17T06:36:47.094Z,6.62
2018-09-17T06:39:15.964Z,6.10
2018-09-17T06:41:44.811Z,6.40
2018-09-17T06:44:14.064Z,6.95
2018-09-17T06:46:43.024Z,6.37
2018-09-17T07:06:32.012Z,6.90
2018-09-17T07:09:00.894Z,6.97
2018-09-17T07:11:29.894Z,7.10
2018-09-17T07:13:58.765Z,6.90
2018-09-17T07:16:27.678Z,6.95
2018-09-17T07:18:56.791Z,6.90
2018-09-17T07:21:25.660Z,7.10
2018-09-17T07:23:54.582Z,6.80
2018-09-17T07:26:23.514Z,6.87
2018-09-17T07:46:12.965Z,7.62
2018-09-17T07:55:26.995Z,7.95
2018-09-17T07:57:55.866Z,7.97
2018-09-17T08:00:24.329Z,9.10
2018-09-17T08:02:53.295Z,9.40
2018-09-17T08:05:22.158Z,8.50
2018-09-17T08:25:11.451Z,10.68
2018-09-17T08:27:40.319Z,9.50
2018-09-17T08:30:09.984Z,10.55
2018-09-17T08:32:38.927Z,11.20
2018-09-17T08:35:08.930Z,11.15
2018-09-17T08:37:37.832Z,10.98
2018-09-17T08:40:07.110Z,11.25
2018-09-17T08:42:36.079Z,11.85
2018-09-17T08:45:05.312Z,11.75
2018-09-17T08:50:33.192Z,11.25
2018-09-17T08:53:02.177Z,11.63
2018-09-17T08:55:36.870Z,11.80
2018-09-17T08:58:11.116Z,12.78
2018-09-17T09:00:45.488Z,12.55
2018-09-17T09:03:18.597Z,12.85
2018-09-17T09:05:52.958Z,12.03
2018-09-17T09:08:21.824Z,12.35
2018-09-17T09:10:59.665Z,12.68
2018-09-17T09:15:39.179Z,13.10
2018-09-17T09:18:09.060Z,13.58
2018-09-17T09:20:39.088Z,12.75
2018-09-17T09:23:08.266Z,13.18
2018-09-17T09:25:37.152Z,13.30
2018-09-17T09:28:06.190Z,14.28
2018-09-17T09:30:35.147Z,13.98
2018-09-17T09:36:04.408Z,14.50
2018-09-17T09:38:33.268Z,14.38
2018-09-17T09:41:02.187Z,15.40
2018-09-17T09:43:31.093Z,13.50
2018-09-17T09:46:00.002Z,14.47
2018-09-17T09:48:28.915Z,14.20
2018-09-17T09:50:57.830Z,14.47
2018-09-17T09:53:26.849Z,14.58
2018-09-17T09:55:56.074Z,13.50
2018-09-17T10:01:32.194Z,12.03
2018-09-17T10:04:06.384Z,12.25
2018-09-17T10:06:35.289Z,10.98
2018-09-17T10:09:10.379Z,12.23
2018-09-17T10:11:44.598Z,11.90
2018-09-17T10:14:18.883Z,11.03
2018-09-17T10:16:53.234Z,10.93
2018-09-17T10:19:24.192Z,10.55
2018-09-17T10:27:45.512Z,11.22
2018-09-17T10:30:14.428Z,10.88
2018-09-17T10:32:43.329Z,9.38
2018-09-17T10:35:12.284Z,8.93
2018-09-17T10:37:41.156Z,8.88
2018-09-17T10:40:10.059Z,8.80
2018-09-17T10:42:38.933Z,8.85
2018-09-17T10:45:07.817Z,9.08
2018-09-17T10:47:36.730Z,9.35
2018-09-17T10:50:06.046Z,7.83
2018-09-17T10:52:34.921Z,8.58
2018-09-17T10:55:04.076Z,9.18
2018-09-17T10:57:32.992Z,7.85
2018-09-17T11:00:02.074Z,8.10
2018-09-17T11:02:31.018Z,7.97
2018-09-17T11:04:59.915Z,8.28
2018-09-17T11:07:28.803Z,7.83
2018-09-17T11:09:57.655Z,7.92
2018-09-17T11:18:13.596Z,7.47
2018-09-17T11:20:42.489Z,6.85
2018-09-17T11:23:11.562Z,7.28
2018-09-17T11:25:40.489Z,6.62
2018-09-17T11:28:09.485Z,7.00
2018-09-17T11:30:38.358Z,6.80
2018-09-17T11:33:07.266Z,7.33
2018-09-17T11:35:36.161Z,6.40
2018-09-17T11:38:05.416Z,6.45
2018-09-17T11:40:34.364Z,5.75
2018-09-17T11:43:03.336Z,6.12
2018-09-17T11:45:32.204Z,5.17
2018-09-17T11:48:01.070Z,5.40
2018-09-17T11:50:30.306Z,5.45
2018-09-17T11:52:59.195Z,4.83
2018-09-17T11:55:31.275Z,4.92
2018-09-17T11:58:00.507Z,5.30
2018-09-17T12:00:34.552Z,5.17
2018-09-17T12:03:08.815Z,4.62
2018-09-17T12:05:43.148Z,4.37
2018-09-17T12:08:15.220Z,3.98
2018-09-17T12:10:44.085Z,4.33
2018-09-17T12:13:12.974Z,3.58
2018-09-17T12:15:43.041Z,3.10
2018-09-17T12:18:13.046Z,2.95
2018-09-17T12:20:42.313Z,3.35
2018-09-17T12:23:11.447Z,3.22
2018-09-17T12:25:40.376Z,3.00
2018-09-17T12:28:09.613Z,3.25
2018-09-17T12:30:38.536Z,2.60
2018-09-17T12:33:07.428Z,2.80
2018-09-17T12:35:36.342Z,3.00
2018-09-17T12:38:05.717Z,2.50
2018-09-17T12:40:34.621Z,2.62
2018-09-17T12:43:03.545Z,2.42
2018-09-17T12:45:32.648Z,2.40
2018-09-17T12:48:01.540Z,1.60
2018-09-17T12:50:30.426Z,2.15
2018-09-17T12:52:59.505Z,2.08
2018-09-17T12:55:28.369Z,1.80
2018-09-17T12:57:57.233Z,1.92
2018-09-17T13:06:12.459Z,1.85
2018-09-17T13:08:41.355Z,1.92
2018-09-17T13:11:10.611Z,1.87
2018-09-17T13:13:40.079Z,2.10
2018-09-17T13:16:08.975Z,1.82
2018-09-17T13:18:37.862Z,2.17
2018-09-17T13:21:06.720Z,1.55
2018-09-17T13:23:35.602Z,1.90
2018-09-17T13:26:04.832Z,1.40
2018-09-17T13:28:33.703Z,1.65
2018-09-17T13:31:02.591Z,1.40
2018-09-17T13:33:31.481Z,1.37
2018-09-17T13:36:00.546Z,1.70
2018-09-17T13:38:29.441Z,1.60
2018-09-17T13:40:58.291Z,1.30
2018-09-17T13:43:27.177Z,1.50
2018-09-17T13:45:56.261Z,1.47
2018-09-17T13:48:25.314Z,1.20
2018-09-17T13:53:48.185Z,1.22
2018-09-17T13:56:17.229Z,1.40
2018-09-17T13:58:46.089Z,1.40
2018-09-17T14:01:14.673Z,1.40
2018-09-17T14:03:43.545Z,1.20
2018-09-17T14:06:12.419Z,1.30
2018-09-17T14:08:41.504Z,1.72
2018-09-17T14:11:10.364Z,1.35
2018-09-17T14:13:39.277Z,1.17
2018-09-17T14:33:37.749Z,1.57
2018-09-17T14:36:06.804Z,1.20
2018-09-17T14:38:36.051Z,1.40
2018-09-17T14:41:05.145Z,1.30
2018-09-17T14:43:33.972Z,1.30
2018-09-17T14:46:03.081Z,1.50
2018-09-17T14:48:32.163Z,1.52
2018-09-17T14:51:01.241Z,1.57
2018-09-17T14:59:17.252Z,1.52
2018-09-17T15:01:46.067Z,1.57
2018-09-17T15:04:15.316Z,1.57
2018-09-17T15:06:44.355Z,1.50
2018-09-17T15:09:13.220Z,1.72
2018-09-17T15:11:41.799Z,1.37
2018-09-17T15:14:10.910Z,1.87
2018-09-17T15:16:39.710Z,1.80
2018-09-17T15:19:08.367Z,1.77
2018-09-17T15:21:37.168Z,1.90
2018-09-17T15:24:06.180Z,1.60
2018-09-17T15:26:34.910Z,1.40
2018-09-17T15:29:04.083Z,1.80
2018-09-17T15:31:32.665Z,1.60
2018-09-17T15:34:01.335Z,1.70
2018-09-17T15:36:30.261Z,2.00
2018-09-17T15:38:59.118Z,1.93
2018-09-17T15:41:27.979Z,1.90
2018-09-17T15:43:56.699Z,2.20
2018-09-17T15:46:25.539Z,2.00
2018-09-17T15:48:54.166Z,2.00
2018-09-17T15:51:22.821Z,2.37
2018-09-17T15:53:51.481Z,2.30
2018-09-17T15:56:20.198Z,2.40
2018-09-17T15:58:48.967Z,2.90
2018-09-17T16:01:17.514Z,3.40
2018-09-17T16:03:46.090Z,2.60
2018-09-17T16:06:14.683Z,2.87
2018-09-17T16:08:43.303Z,3.67
2018-09-17T16:11:12.103Z,3.47
2018-09-17T16:13:40.734Z,2.93
2018-09-17T16:16:09.647Z,2.83
2018-09-17T16:18:38.242Z,2.87
2018-09-17T16:21:06.842Z,2.93
2018-09-17T16:23:35.454Z,3.10
2018-09-17T16:26:04.199Z,3.43
2018-09-17T16:28:32.808Z,3.50
2018-09-17T16:31:01.412Z,3.23
2018-09-17T16:33:30.284Z,3.03
2018-09-17T16:35:59.047Z,3.87
2018-09-17T16:38:27.662Z,3.93
2018-09-17T16:40:56.291Z,4.20
2018-09-17T16:43:25.068Z,4.73
2018-09-17T16:45:53.668Z,4.30
2018-09-17T16:48:22.430Z,4.53
2018-09-17T16:50:51.084Z,4.13
2018-09-17T16:53:20.500Z,4.60
2018-09-17T16:55:49.203Z,4.87
2018-09-17T16:58:17.909Z,5.17
2018-09-17T17:00:47.201Z,5.53
2018-09-17T17:03:16.108Z,5.40
2018-09-17T17:05:45.021Z,5.78
2018-09-17T17:08:14.097Z,6.58
2018-09-17T17:10:43.035Z,5.37
2018-09-17T17:13:12.094Z,5.20
2018-09-17T17:15:41.144Z,5.00
2018-09-17T17:18:10.562Z,4.75
2018-09-17T17:20:39.858Z,4.55
2018-09-17T17:23:08.804Z,4.10
2018-09-17T17:25:37.723Z,4.05
2018-09-17T17:28:06.729Z,4.10
2018-09-17T17:30:35.830Z,4.22
2018-09-17T17:33:04.948Z,4.70
2018-09-17T17:35:34.017Z,4.37
2018-09-17T17:38:03.031Z,4.05
2018-09-17T17:40:32.162Z,3.77
2018-09-17T17:43:01.098Z,3.70
2018-09-17T17:45:29.984Z,3.80
2018-09-17T17:47:58.958Z,3.80
2018-09-17T17:50:27.864Z,4.47
2018-09-17T17:52:56.813Z,4.37
2018-09-17T17:55:25.704Z,4.53
2018-09-17T17:57:54.699Z,4.72
2018-09-17T18:00:23.238Z,4.67
2018-09-17T18:02:52.257Z,4.45
2018-09-17T18:05:21.137Z,4.17
2018-09-17T18:07:50.071Z,4.80
2018-09-17T18:10:18.934Z,5.05
2018-09-17T18:12:47.852Z,4.00
2018-09-17T18:15:16.824Z,4.42
2018-09-17T18:17:45.914Z,4.47
2018-09-17T18:20:14.860Z,4.80
2018-09-17T18:22:43.806Z,4.45
2018-09-17T18:25:13.017Z,4.37
2018-09-17T18:27:41.906Z,4.50
2018-09-17T18:30:10.793Z,3.98
2018-09-17T18:32:39.766Z,4.33
2018-09-17T18:35:08.835Z,4.55
2018-09-17T18:37:38.021Z,4.67
2018-09-17T18:40:07.017Z,5.03
2018-09-17T18:42:36.198Z,5.25
2018-09-17T18:45:05.325Z,4.58
2018-09-17T18:47:34.426Z,4.45
2018-09-17T18:50:03.706Z,4.92
2018-09-17T18:52:32.935Z,4.95
2018-09-17T18:55:01.974Z,5.25
2018-09-17T18:57:31.109Z,5.35
2018-09-17T19:00:00.173Z,5.75
2018-09-17T19:02:29.079Z,5.37
2018-09-17T19:04:58.027Z,5.55
2018-09-17T19:07:26.965Z,5.47
2018-09-17T19:09:55.875Z,5.40
2018-09-17T19:12:25.197Z,5.67
2018-09-17T19:14:59.634Z,5.20
2018-09-17T19:17:33.900Z,5.22
2018-09-17T19:20:10.327Z,6.12
2018-09-17T19:22:45.064Z,5.83
2018-09-17T19:25:15.519Z,6.20
2018-09-17T19:27:50.160Z,6.15
2018-09-17T19:30:19.304Z,6.12
2018-09-17T19:32:48.316Z,5.90
2018-09-17T19:35:17.264Z,6.20
2018-09-17T19:37:51.549Z,5.95
2018-09-17T19:40:22.021Z,6.25
2018-09-17T19:42:51.285Z,6.50
2018-09-17T19:46:22.953Z,6.90
2018-09-17T19:48:52.029Z,6.37
2018-09-17T19:51:26.419Z,6.65
2018-09-17T19:53:55.867Z,6.83
2018-09-17T19:56:24.981Z,6.72
2018-09-17T19:58:59.283Z,6.28
2018-09-17T20:01:28.030Z,6.63
2018-09-17T20:04:00.982Z,6.95
2018-09-17T20:06:30.031Z,7.17
2018-09-17T20:08:59.070Z,6.78
2018-09-17T20:11:27.966Z,6.72
2018-09-17T20:13:56.916Z,6.37
2018-09-17T20:16:25.895Z,5.83
2018-09-17T20:18:54.811Z,6.30
2018-09-17T20:21:23.724Z,6.03
2018-09-17T20:23:52.651Z,5.83
2018-09-17T20:26:21.575Z,6.53
2018-09-17T20:28:50.513Z,6.40
2018-09-17T20:31:19.405Z,6.25
2018-09-17T20:33:48.730Z,6.20
2018-09-17T20:36:19.365Z,7.00
2018-09-17T20:38:48.379Z,6.47
2018-09-17T20:41:17.453Z,6.45
2018-09-17T20:43:46.364Z,6.47
2018-09-17T20:46:15.307Z,6.50
2018-09-17T20:48:44.753Z,5.95
2018-09-17T20:51:13.752Z,5.95
2018-09-17T20:53:42.710Z,5.75
2018-09-17T20:56:11.740Z,6.20
2018-09-17T20:58:41.088Z,5.70
2018-09-17T21:01:10.159Z,6.00
2018-09-17T21:03:39.113Z,5.60
2018-09-17T21:06:08.045Z,6.10
2018-09-17T21:08:36.959Z,5.90
2018-09-17T21:11:05.839Z,5.62
2018-09-17T21:13:34.755Z,5.87
2018-09-17T21:16:03.898Z,6.37
2018-09-17T21:18:33.006Z,6.05
2018-09-17T21:21:02.367Z,5.92
2018-09-17T21:23:31.260Z,5.75
2018-09-17T21:26:00.190Z,6.60
2018-09-17T21:28:29.374Z,5.97
2018-09-17T21:30:58.429Z,6.35
2018-09-17T21:33:27.359Z,5.92
2018-09-17T21:35:56.277Z,5.70
2018-09-17T21:38:25.156Z,5.55
2018-09-17T21:40:54.094Z,5.97
2018-09-17T21:43:23.187Z,6.37
2018-09-17T21:45:52.228Z,6.35
2018-09-17T21:48:21.156Z,6.80
2018-09-17T21:50:50.013Z,6.55
2018-09-17T21:53:18.869Z,6.62
2018-09-17T21:55:47.711Z,6.97
2018-09-17T21:58:16.717Z,6.65
2018-09-17T22:00:51.006Z,6.97
2018-09-17T22:03:20.170Z,6.75
2018-09-17T22:05:49.196Z,6.42
2018-09-17T22:08:18.048Z,7.45
2018-09-17T22:10:46.909Z,6.90
2018-09-17T22:13:15.777Z,7.08
2018-09-17T22:15:44.674Z,7.35
2018-09-17T22:18:13.561Z,6.92
2018-09-17T22:20:42.729Z,7.20
2018-09-17T22:23:11.699Z,7.97
2018-09-17T22:25:40.934Z,7.25
2018-09-17T22:28:09.900Z,7.65
2018-09-17T22:30:38.820Z,8.00
2018-09-17T22:33:07.709Z,7.70
2018-09-17T22:35:36.607Z,8.10
2018-09-17T22:38:05.651Z,8.05
2018-09-17T22:40:34.589Z,8.43
2018-09-17T22:43:03.464Z,8.40
2018-09-17T22:45:32.329Z,8.55
2018-09-17T22:48:01.219Z,8.10
2018-09-17T22:50:30.078Z,8.55
2018-09-17T22:52:58.979Z,8.18
2018-09-17T22:55:27.798Z,8.68
2018-09-17T22:57:56.689Z,8.60
2018-09-17T23:00:25.515Z,8.68
2018-09-17T23:02:54.385Z,8.80
2018-09-17T23:05:23.273Z,8.45
2018-09-17T23:07:52.160Z,8.20
2018-09-17T23:10:21.371Z,8.63
2018-09-17T23:12:50.236Z,8.20
2018-09-17T23:15:19.118Z,7.80
2018-09-17T23:17:47.994Z,8.00
2018-09-17T23:20:16.883Z,8.30
2018-09-17T23:22:46.080Z,8.03
2018-09-17T23:25:14.991Z,7.80
2018-09-17T23:27:43.841Z,7.10
2018-09-17T23:30:12.687Z,6.65
2018-09-17T23:32:41.591Z,6.47
2018-09-17T23:35:10.449Z,7.10
2018-09-17T23:37:39.303Z,7.17
2018-09-17T23:40:08.142Z,6.22
2018-09-17T23:42:37.018Z,6.28
2018-09-17T23:45:05.926Z,6.33
2018-09-17T23:47:34.783Z,7.08
2018-09-17T23:50:03.697Z,6.87
2018-09-17T23:52:32.547Z,6.67
2018-09-17T23:55:01.417Z,7.40
2018-09-17T23:57:30.277Z,7.45
2018-09-17T23:59:59.142Z,7.47
